Time;durP1;ratioP1;P1;durP2;ratioP2;P2;SDS_P1;SDS_P2;PMS_P1;PMS_P2;Temp;Humidity;BMP_temperature;BMP_pressure;BME280_temperature;BME280_humidity;BME280_pressure;Samples;Min_cycle;Max_cycle;Signal;HPM_P1;HPM_P2
2023/07/08 00:02:19;;;;;;;5.97;4.07;;;;;;;;;;5091732;28;20031;-60
2023/07/08 00:04:45;;;;;;;7.05;3.97;;;;;;;;;;5092608;28;20066;-60
2023/07/08 00:07:13;;;;;;;5.70;3.78;;;;;;;;;;5092229;28;20534;-60
2023/07/08 00:09:39;;;;;;;5.85;3.83;;;;;;;;;;5092011;28;20448;-61
2023/07/08 00:12:11;;;;;;;6.22;4.32;;;;;;;;;;5091711;28;20035;-60
2023/07/08 00:14:37;;;;;;;5.63;3.67;;;;;;;;;;5091228;28;20048;-60
2023/07/08 00:17:05;;;;;;;6.93;5.10;;;;;;;;;;5092327;28;20114;-60
2023/07/08 00:19:31;;;;;;;4.65;3.80;;;;;;;;;;5092190;28;20449;-60
2023/07/08 00:21:57;;;;;;;6.63;4.40;;;;;;;;;;5091233;28;20028;-60
2023/07/08 00:24:23;;;;;;;5.70;3.85;;;;;;;;;;5092331;28;20022;-60
2023/07/08 00:26:49;;;;;;;5.20;3.63;;;;;;;;;;5092252;28;20026;-60
2023/07/08 00:29:17;;;;;;;4.53;3.75;;;;;;;;;;5092031;28;20020;-60
2023/07/08 00:31:43;;;;;;;5.35;3.90;;;;;;;;;;5088393;28;20016;-60
2023/07/08 00:34:09;;;;;;;6.25;4.78;;;;;;;;;;5091972;28;20028;-60
2023/07/08 00:36:35;;;;;;;5.45;4.40;;;;;;;;;;5091911;28;20450;-60
2023/07/08 00:39:01;;;;;;;5.10;4.10;;;;;;;;;;5092434;28;20065;-60
2023/07/08 00:41:35;;;;;;;5.05;3.97;;;;;;;;;;5091217;28;20032;-60
2023/07/08 00:44:01;;;;;;;6.80;3.97;;;;;;;;;;5092017;28;20066;-60
2023/07/08 00:46:27;;;;;;;4.63;3.90;;;;;;;;;;5091766;28;20354;-60
2023/07/08 00:48:55;;;;;;;8.25;4.00;;;;;;;;;;5091929;28;20065;-60
2023/07/08 00:51:23;;;;;;;5.85;4.10;;;;;;;;;;5090806;28;20025;-60
2023/07/08 00:53:48;;;;;;;5.55;4.57;;;;;;;;;;5091744;28;20042;-60
2023/07/08 00:56:34;;;;;;;5.47;3.33;;;;;;;;;;5091164;28;20107;-60
2023/07/08 00:59:09;;;;;;;6.22;4.10;;;;;;;;;;5091937;28;20028;-60
2023/07/08 01:01:37;;;;;;;6.43;4.30;;;;;;;;;;5090908;28;20028;-60
2023/07/08 01:04:09;;;;;;;4.82;4.00;;;;;;;;;;5091580;28;20416;-60
2023/07/08 01:06:39;;;;;;;5.07;3.78;;;;;;;;;;5091752;28;20123;-60
2023/07/08 01:09:06;;;;;;;6.28;4.03;;;;;;;;;;5090848;28;20020;-60
2023/07/08 01:11:33;;;;;;;5.63;4.60;;;;;;;;;;5090712;28;20085;-60
2023/07/08 01:14:00;;;;;;;5.78;3.88;;;;;;;;;;5091980;28;20099;-60
2023/07/08 01:16:26;;;;;;;5.85;3.13;;;;;;;;;;5091364;28;20084;-60
2023/07/08 01:18:55;;;;;;;5.03;4.28;;;;;;;;;;5091557;28;20039;-61
2023/07/08 01:21:29;;;;;;;6.35;4.50;;;;;;;;;;5090490;28;20453;-60
2023/07/08 01:23:55;;;;;;;6.20;4.35;;;;;;;;;;5092134;28;20024;-60
2023/07/08 01:26:25;;;;;;;6.65;4.50;;;;;;;;;;5091344;28;20062;-60
2023/07/08 01:28:52;;;;;;;5.00;3.75;;;;;;;;;;5091704;28;20540;-60
2023/07/08 01:31:19;;;;;;;5.13;3.72;;;;;;;;;;5089567;28;20024;-61
2023/07/08 01:33:45;;;;;;;4.90;4.05;;;;;;;;;;5091373;28;20176;-60
2023/07/08 01:36:11;;;;;;;5.72;4.00;;;;;;;;;;5091251;28;20016;-61
2023/07/08 01:38:37;;;;;;;7.85;4.35;;;;;;;;;;5091553;28;20029;-60
2023/07/08 01:41:03;;;;;;;6.13;4.35;;;;;;;;;;5090500;28;20035;-60
2023/07/08 01:43:29;;;;;;;6.03;3.75;;;;;;;;;;5091377;28;20464;-61
2023/07/08 01:45:56;;;;;;;4.97;3.72;;;;;;;;;;5091354;28;20016;-60
2023/07/08 01:48:23;;;;;;;7.20;4.63;;;;;;;;;;5091653;28;20039;-61
2023/07/08 01:50:55;;;;;;;6.13;4.13;;;;;;;;;;5090324;28;20089;-61
2023/07/08 01:53:32;;;;;;;6.13;4.85;;;;;;;;;;5091584;28;20218;-60
2023/07/08 01:55:58;;;;;;;4.88;3.83;;;;;;;;;;5091105;28;20091;-60
2023/07/08 01:58:25;;;;;;;7.28;4.55;;;;;;;;;;5091606;28;20033;-60
2023/07/08 02:00:51;;;;;;;5.65;4.07;;;;;;;;;;5090489;28;20020;-61
2023/07/08 02:03:17;;;;;;;6.65;4.20;;;;;;;;;;5091428;28;20392;-60
2023/07/08 02:05:43;;;;;;;5.25;4.10;;;;;;;;;;5090729;28;20020;-60
2023/07/08 02:08:09;;;;;;;6.75;4.88;;;;;;;;;;5093089;28;20024;-60
2023/07/08 02:10:35;;;;;;;9.18;4.65;;;;;;;;;;5093087;28;20458;-60
2023/07/08 02:13:01;;;;;;;5.95;3.80;;;;;;;;;;5094967;28;20040;-61
2023/07/08 02:15:27;;;;;;;4.25;3.75;;;;;;;;;;5094609;28;20513;-61
2023/07/08 02:17:53;;;;;;;5.22;4.10;;;;;;;;;;5094943;28;20373;-60
2023/07/08 02:20:19;;;;;;;4.00;3.28;;;;;;;;;;5093588;28;20032;-61
2023/07/08 02:22:45;;;;;;;4.60;3.50;;;;;;;;;;5094758;28;20065;-60
2023/07/08 02:25:11;;;;;;;5.38;3.80;;;;;;;;;;5094192;28;20076;-60
2023/07/08 02:27:37;;;;;;;5.57;4.13;;;;;;;;;;5094864;28;20027;-60
2023/07/08 02:30:04;;;;;;;7.65;4.25;;;;;;;;;;5094619;28;20020;-60
2023/07/08 02:32:30;;;;;;;5.57;3.65;;;;;;;;;;5092453;28;20032;-60
2023/07/08 02:34:56;;;;;;;6.82;4.38;;;;;;;;;;5094312;28;20057;-60
2023/07/08 02:37:22;;;;;;;6.97;4.30;;;;;;;;;;5093917;28;20024;-60
2023/07/08 02:39:47;;;;;;;5.82;4.35;;;;;;;;;;5094443;28;20039;-61
2023/07/08 02:42:13;;;;;;;7.20;3.70;;;;;;;;;;5093298;28;20059;-60
2023/07/08 02:44:39;;;;;;;6.15;4.07;;;;;;;;;;5094230;28;20028;-60
2023/07/08 02:47:05;;;;;;;7.03;3.97;;;;;;;;;;5094386;28;20431;-60
2023/07/08 02:49:31;;;;;;;5.75;3.83;;;;;;;;;;5093991;28;20012;-60
2023/07/08 02:51:57;;;;;;;4.72;2.92;;;;;;;;;;5093104;28;20074;-60
2023/07/08 02:54:23;;;;;;;4.53;3.42;;;;;;;;;;5094067;28;20077;-61
2023/07/08 02:56:49;;;;;;;5.15;3.83;;;;;;;;;;5093662;28;20359;-60
2023/07/08 02:59:15;;;;;;;8.98;4.40;;;;;;;;;;5093965;28;20074;-60
2023/07/08 03:01:46;;;;;;;9.13;4.53;;;;;;;;;;5092823;28;20062;-61
2023/07/08 03:04:13;;;;;;;5.97;4.50;;;;;;;;;;5094040;28;20458;-60
2023/07/08 03:06:40;;;;;;;7.88;4.35;;;;;;;;;;5093673;28;20382;-60
2023/07/08 03:09:06;;;;;;;7.75;4.18;;;;;;;;;;5093199;28;20054;-60
2023/07/08 03:11:32;;;;;;;4.95;3.75;;;;;;;;;;5092691;28;20476;-60
2023/07/08 03:13:57;;;;;;;5.43;4.03;;;;;;;;;;5093744;28;20043;-60
2023/07/08 03:16:23;;;;;;;6.05;3.90;;;;;;;;;;5093258;28;20024;-60
2023/07/08 03:18:49;;;;;;;5.63;4.18;;;;;;;;;;5093050;28;20023;-60
2023/07/08 03:21:17;;;;;;;6.03;3.70;;;;;;;;;;5092752;28;20028;-60
2023/07/08 03:23:43;;;;;;;5.25;3.78;;;;;;;;;;5093565;28;20023;-60
2023/07/08 03:26:13;;;;;;;6.13;4.03;;;;;;;;;;5093257;28;20022;-60
2023/07/08 03:28:39;;;;;;;6.35;4.75;;;;;;;;;;5093547;28;20359;-60
2023/07/08 03:31:05;;;;;;;5.85;3.85;;;;;;;;;;5090485;28;20027;-60
2023/07/08 03:33:31;;;;;;;8.15;3.85;;;;;;;;;;5093416;28;20060;-60
2023/07/08 03:35:57;;;;;;;5.30;3.80;;;;;;;;;;5092799;28;20019;-60
2023/07/08 03:38:23;;;;;;;6.63;4.65;;;;;;;;;;5093255;28;20023;-60
2023/07/08 03:40:49;;;;;;;6.00;4.15;;;;;;;;;;5092321;28;20024;-60
2023/07/08 03:43:15;;;;;;;5.85;4.13;;;;;;;;;;5092908;28;20039;-60
2023/07/08 03:45:41;;;;;;;7.00;4.75;;;;;;;;;;5093152;28;20438;-60
2023/07/08 03:48:07;;;;;;;7.18;4.65;;;;;;;;;;5093105;28;20458;-61
2023/07/08 03:50:32;;;;;;;5.35;4.32;;;;;;;;;;5092139;28;20031;-61
2023/07/08 03:52:58;;;;;;;6.18;4.30;;;;;;;;;;5092796;28;20024;-60
2023/07/08 03:55:24;;;;;;;5.22;4.05;;;;;;;;;;5092667;28;20020;-60
2023/07/08 03:57:50;;;;;;;6.18;3.75;;;;;;;;;;5092639;28;20020;-60
2023/07/08 04:00:16;;;;;;;7.50;5.30;;;;;;;;;;5091981;28;20052;-60
2023/07/08 04:02:43;;;;;;;6.03;3.92;;;;;;;;;;5092794;28;20032;-60
2023/07/08 04:05:14;;;;;;;6.07;4.30;;;;;;;;;;5092813;28;20032;-60
2023/07/08 04:07:40;;;;;;;5.65;4.53;;;;;;;;;;5092509;28;20485;-60
2023/07/08 04:10:07;;;;;;;6.20;3.70;;;;;;;;;;5091567;28;20054;-60
2023/07/08 04:12:33;;;;;;;5.53;3.67;;;;;;;;;;5091714;28;20123;-60
2023/07/08 04:14:58;;;;;;;4.47;3.38;;;;;;;;;;5092435;28;20123;-60
2023/07/08 04:17:25;;;;;;;6.32;4.18;;;;;;;;;;5092320;28;20115;-60
2023/07/08 04:19:51;;;;;;;6.45;4.15;;;;;;;;;;5092770;28;20024;-61
2023/07/08 04:22:17;;;;;;;4.93;3.53;;;;;;;;;;5091758;28;20085;-61
2023/07/08 04:24:43;;;;;;;5.78;3.80;;;;;;;;;;5092317;28;20020;-60
2023/07/08 04:27:13;;;;;;;6.22;3.83;;;;;;;;;;5091976;28;20031;-61
2023/07/08 04:29:39;;;;;;;6.75;4.20;;;;;;;;;;5092065;28;20377;-60
2023/07/08 04:32:05;;;;;;;6.07;3.90;;;;;;;;;;5087902;28;20028;-60
2023/07/08 04:34:31;;;;;;;5.25;4.18;;;;;;;;;;5092270;28;20028;-60
2023/07/08 04:36:57;;;;;;;5.63;4.03;;;;;;;;;;5091978;28;20031;-60
2023/07/08 04:39:23;;;;;;;5.10;3.67;;;;;;;;;;5092170;28;20024;-60
2023/07/08 04:41:49;;;;;;;7.85;4.43;;;;;;;;;;5091137;28;20031;-60
2023/07/08 04:44:19;;;;;;;5.10;4.45;;;;;;;;;;5092277;28;20512;-60
2023/07/08 04:46:45;;;;;;;5.03;3.97;;;;;;;;;;5091773;28;20508;-60
2023/07/08 04:49:11;;;;;;;8.85;4.05;;;;;;;;;;5091981;28;20048;-60
2023/07/08 04:51:38;;;;;;;6.30;3.80;;;;;;;;;;5090581;28;20528;-60
2023/07/08 04:54:03;;;;;;;7.30;4.53;;;;;;;;;;5091893;28;20032;-61
2023/07/08 04:56:41;;;;;;;5.38;4.88;;;;;;;;;;5091610;28;20039;-60
2023/07/08 04:59:08;;;;;;;6.10;4.75;;;;;;;;;;5091824;28;20107;-60
2023/07/08 05:01:34;;;;;;;5.90;4.53;;;;;;;;;;5091073;28;20054;-60
2023/07/08 05:04:00;;;;;;;9.65;4.50;;;;;;;;;;5091557;28;20106;-61
2023/07/08 05:06:27;;;;;;;8.07;4.85;;;;;;;;;;5091728;28;20043;-61
2023/07/08 05:08:53;;;;;;;5.65;4.32;;;;;;;;;;5091832;28;20116;-61
2023/07/08 05:11:18;;;;;;;5.63;4.38;;;;;;;;;;5090991;28;20097;-60
2023/07/08 05:13:44;;;;;;;5.43;4.20;;;;;;;;;;5091651;28;20115;-60
2023/07/08 05:16:10;;;;;;;5.72;4.15;;;;;;;;;;5091518;28;20366;-60
2023/07/08 05:18:36;;;;;;;5.53;4.35;;;;;;;;;;5091515;28;20108;-60
2023/07/08 05:21:03;;;;;;;7.05;4.55;;;;;;;;;;5090886;28;20115;-60
2023/07/08 05:23:29;;;;;;;6.28;4.72;;;;;;;;;;5091753;28;20020;-61
2023/07/08 05:25:55;;;;;;;7.25;4.78;;;;;;;;;;5091205;28;20097;-61
2023/07/08 05:28:23;;;;;;;6.28;4.60;;;;;;;;;;5091553;28;20375;-60
2023/07/08 05:30:53;;;;;;;10.98;4.53;;;;;;;;;;5088054;28;20058;-61
2023/07/08 05:33:19;;;;;;;7.90;4.97;;;;;;;;;;5090332;28;20035;-60
2023/07/08 05:35:45;;;;;;;7.03;4.72;;;;;;;;;;5091380;28;20016;-60
2023/07/08 05:38:11;;;;;;;6.05;4.80;;;;;;;;;;5091559;28;20059;-61
2023/07/08 05:40:37;;;;;;;9.20;5.03;;;;;;;;;;5090498;28;20040;-61
2023/07/08 05:43:03;;;;;;;6.50;4.65;;;;;;;;;;5094974;28;20028;-61
2023/07/08 05:45:30;;;;;;;5.47;3.78;;;;;;;;;;5095576;28;20385;-61
2023/07/08 05:47:56;;;;;;;5.57;4.38;;;;;;;;;;5095600;28;20368;-60
2023/07/08 05:50:22;;;;;;;5.75;4.75;;;;;;;;;;5094434;28;20024;-61
2023/07/08 05:52:47;;;;;;;5.88;4.30;;;;;;;;;;5095301;28;20139;-61
2023/07/08 05:55:13;;;;;;;5.80;3.70;;;;;;;;;;5094895;28;20115;-60
2023/07/08 05:57:39;;;;;;;4.78;3.30;;;;;;;;;;5095100;28;20023;-60
2023/07/08 06:00:07;;;;;;;7.18;4.15;;;;;;;;;;5094756;28;20492;-61
2023/07/08 06:02:33;;;;;;;4.18;3.55;;;;;;;;;;5094386;28;20475;-60
2023/07/08 06:04:59;;;;;;;5.60;4.18;;;;;;;;;;5094875;28;20063;-61
2023/07/08 06:07:25;;;;;;;5.82;4.18;;;;;;;;;;5094445;28;20031;-61
2023/07/08 06:09:51;;;;;;;5.93;4.40;;;;;;;;;;5093754;28;20031;-61
2023/07/08 06:12:17;;;;;;;6.75;4.93;;;;;;;;;;5093535;28;20032;-61
2023/07/08 06:14:43;;;;;;;6.38;5.03;;;;;;;;;;5094640;28;20347;-60
2023/07/08 06:17:09;;;;;;;7.22;4.57;;;;;;;;;;5095073;28;20080;-61
2023/07/08 06:19:35;;;;;;;6.47;4.65;;;;;;;;;;5094731;28;20107;-61
2023/07/08 06:22:01;;;;;;;7.15;4.85;;;;;;;;;;5093788;28;20111;-61
2023/07/08 06:24:27;;;;;;;5.97;4.43;;;;;;;;;;5094196;28;20024;-60
2023/07/08 06:26:53;;;;;;;6.63;3.53;;;;;;;;;;5094119;28;20025;-61
2023/07/08 06:29:19;;;;;;;4.60;3.88;;;;;;;;;;5094298;28;20020;-60
2023/07/08 06:31:45;;;;;;;6.55;4.03;;;;;;;;;;5092483;28;20518;-60
2023/07/08 06:34:11;;;;;;;5.68;4.10;;;;;;;;;;5094014;28;20024;-61
2023/07/08 06:36:37;;;;;;;4.68;3.72;;;;;;;;;;5094190;28;20384;-61
2023/07/08 06:39:03;;;;;;;8.05;4.40;;;;;;;;;;5094211;28;20106;-61
2023/07/08 06:41:29;;;;;;;6.57;4.05;;;;;;;;;;5093548;28;20493;-61
2023/07/08 06:43:55;;;;;;;6.88;3.97;;;;;;;;;;5094332;28;20031;-60
2023/07/08 06:46:21;;;;;;;5.68;4.05;;;;;;;;;;5094038;28;20016;-61
2023/07/08 06:48:47;;;;;;;6.18;4.10;;;;;;;;;;5094301;28;20016;-61
2023/07/08 06:51:13;;;;;;;5.55;4.05;;;;;;;;;;5093124;28;20013;-61
2023/07/08 06:53:39;;;;;;;4.60;3.58;;;;;;;;;;5092942;28;20024;-61
2023/07/08 06:56:05;;;;;;;6.60;4.20;;;;;;;;;;5093835;28;20489;-60
2023/07/08 06:58:31;;;;;;;9.63;4.80;;;;;;;;;;5093998;28;20051;-61
2023/07/08 07:00:56;;;;;;;6.18;3.65;;;;;;;;;;5093092;28;20157;-61
2023/07/08 07:03:22;;;;;;;6.18;4.18;;;;;;;;;;5092496;28;20031;-60
2023/07/08 07:05:48;;;;;;;6.30;4.70;;;;;;;;;;5093604;28;20019;-60
2023/07/08 07:08:14;;;;;;;5.85;3.90;;;;;;;;;;5093954;28;20089;-60
2023/07/08 07:10:40;;;;;;;5.05;4.35;;;;;;;;;;5092028;28;20485;-61
2023/07/08 07:13:06;;;;;;;5.10;4.00;;;;;;;;;;5093716;28;20051;-61
2023/07/08 07:15:32;;;;;;;5.60;3.83;;;;;;;;;;5093653;28;20458;-61
2023/07/08 07:17:58;;;;;;;6.03;3.63;;;;;;;;;;5093661;28;20523;-60
2023/07/08 07:20:25;;;;;;;6.95;3.75;;;;;;;;;;5092686;28;20089;-61
2023/07/08 07:22:51;;;;;;;6.78;4.20;;;;;;;;;;5093467;28;20028;-60
2023/07/08 07:25:17;;;;;;;5.40;4.03;;;;;;;;;;5092752;28;20451;-60
2023/07/08 07:27:43;;;;;;;5.32;3.70;;;;;;;;;;5093420;28;20031;-60
2023/07/08 07:30:12;;;;;;;5.38;3.65;;;;;;;;;;5093050;28;20366;-61
2023/07/08 07:32:39;;;;;;;6.15;4.03;;;;;;;;;;5090474;28;20032;-61
2023/07/08 07:35:05;;;;;;;6.20;4.60;;;;;;;;;;5092906;28;20031;-61
2023/07/08 07:37:31;;;;;;;7.70;3.65;;;;;;;;;;5092610;28;20484;-61
2023/07/08 07:39:57;;;;;;;5.10;4.22;;;;;;;;;;5093440;28;20036;-61
2023/07/08 07:42:23;;;;;;;4.65;3.30;;;;;;;;;;5091952;28;20028;-61
2023/07/08 07:44:49;;;;;;;6.00;4.13;;;;;;;;;;5093092;28;20066;-61
2023/07/08 07:47:15;;;;;;;4.78;3.72;;;;;;;;;;5092701;28;20384;-61
2023/07/08 07:49:41;;;;;;;4.60;3.22;;;;;;;;;;5092752;28;20099;-61
2023/07/08 07:52:07;;;;;;;5.65;4.10;;;;;;;;;;5092016;28;20083;-61
2023/07/08 07:54:33;;;;;;;5.50;3.67;;;;;;;;;;5093400;28;20058;-61
2023/07/08 07:56:59;;;;;;;5.45;3.38;;;;;;;;;;5092791;28;20429;-61
2023/07/08 07:59:25;;;;;;;4.63;3.55;;;;;;;;;;5092608;28;20366;-61
2023/07/08 08:01:51;;;;;;;3.55;2.70;;;;;;;;;;5091833;28;20431;-61
2023/07/08 08:04:17;;;;;;;4.35;3.72;;;;;;;;;;5092587;28;20027;-61
2023/07/08 08:06:43;;;;;;;3.67;2.67;;;;;;;;;;5092484;28;20039;-61
2023/07/08 08:09:09;;;;;;;4.80;3.15;;;;;;;;;;5091985;28;20024;-61
2023/07/08 08:11:35;;;;;;;4.57;2.78;;;;;;;;;;5092053;28;20505;-60
2023/07/08 08:14:03;;;;;;;6.50;3.30;;;;;;;;;;5092362;28;20124;-61
2023/07/08 08:16:29;;;;;;;3.22;2.55;;;;;;;;;;5092163;28;20024;-60
2023/07/08 08:18:55;;;;;;;5.78;2.95;;;;;;;;;;5092360;28;20132;-61
2023/07/08 08:21:21;;;;;;;5.13;3.40;;;;;;;;;;5091673;28;20016;-60
2023/07/08 08:23:47;;;;;;;9.00;2.72;;;;;;;;;;5092476;28;20031;-61
2023/07/08 08:26:13;;;;;;;5.55;3.17;;;;;;;;;;5092080;28;20412;-61
2023/07/08 08:28:40;;;;;;;4.45;2.92;;;;;;;;;;5092258;28;20020;-61
2023/07/08 08:31:05;;;;;;;5.75;2.90;;;;;;;;;;5089298;28;20016;-61
2023/07/08 08:33:32;;;;;;;3.83;2.38;;;;;;;;;;5092456;28;20111;-61
2023/07/08 08:35:57;;;;;;;3.35;2.42;;;;;;;;;;5091999;28;20367;-60
2023/07/08 08:38:23;;;;;;;4.00;2.60;;;;;;;;;;5092288;28;20030;-61
2023/07/08 08:40:49;;;;;;;5.00;2.33;;;;;;;;;;5091372;28;20079;-61
2023/07/08 08:43:19;;;;;;;3.85;2.95;;;;;;;;;;5091907;28;20075;-61
2023/07/08 08:45:56;;;;;;;7.28;3.67;;;;;;;;;;5091756;28;20058;-61
2023/07/08 08:48:24;;;;;;;4.65;2.83;;;;;;;;;;5092063;28;20469;-61
2023/07/08 08:50:52;;;;;;;7.35;2.83;;;;;;;;;;5091107;28;20437;-61
2023/07/08 08:53:19;;;;;;;4.80;2.85;;;;;;;;;;5091831;28;20063;-61
2023/07/08 08:55:49;;;;;;;4.32;2.70;;;;;;;;;;5091437;28;20028;-61
2023/07/08 08:58:21;;;;;;;3.45;2.40;;;;;;;;;;5092051;28;20107;-61
2023/07/08 09:00:52;;;;;;;3.17;2.00;;;;;;;;;;5090733;28;20470;-61
2023/07/08 09:03:22;;;;;;;5.32;2.28;;;;;;;;;;5092007;28;20089;-61
2023/07/08 09:05:48;;;;;;;2.90;2.03;;;;;;;;;;5091580;28;20020;-60
2023/07/08 09:08:17;;;;;;;12.50;3.05;;;;;;;;;;5091701;28;20026;-61
2023/07/08 09:10:49;;;;;;;4.82;1.67;;;;;;;;;;5089748;28;20016;-61
2023/07/08 09:13:22;;;;;;;2.33;1.55;;;;;;;;;;5091880;28;20032;-62
2023/07/08 09:15:49;;;;;;;2.72;1.80;;;;;;;;;;5091757;28;20365;-61
2023/07/08 09:18:20;;;;;;;2.30;1.13;;;;;;;;;;5095862;28;20377;-61
2023/07/08 09:20:47;;;;;;;3.85;1.77;;;;;;;;;;5094709;28;20046;-61
2023/07/08 09:23:18;;;;;;;6.28;2.10;;;;;;;;;;5095740;28;20044;-60
2023/07/08 09:25:48;;;;;;;5.22;2.72;;;;;;;;;;5095591;28;20016;-61
2023/07/08 09:28:14;;;;;;;3.97;1.70;;;;;;;;;;5095797;28;20017;-61
2023/07/08 09:30:40;;;;;;;4.15;2.65;;;;;;;;;;5094200;28;20378;-61
2023/07/08 09:33:08;;;;;;;3.38;1.90;;;;;;;;;;5095014;28;20302;-61
2023/07/08 09:35:46;;;;;;;3.75;2.15;;;;;;;;;;5095439;28;20047;-61
2023/07/08 09:38:21;;;;;;;2.72;1.77;;;;;;;;;;5095679;28;20020;-61
2023/07/08 09:40:53;;;;;;;3.80;2.45;;;;;;;;;;5094644;28;20051;-61
2023/07/08 09:43:27;;;;;;;5.53;2.47;;;;;;;;;;5095335;28;20032;-61
2023/07/08 09:45:57;;;;;;;3.88;2.50;;;;;;;;;;5095005;28;20027;-61
2023/07/08 09:48:27;;;;;;;4.65;2.75;;;;;;;;;;5095671;28;20020;-60
2023/07/08 09:50:54;;;;;;;4.65;2.88;;;;;;;;;;5094275;28;20461;-61
2023/07/08 09:53:21;;;;;;;5.28;2.28;;;;;;;;;;5095140;28;20028;-60
2023/07/08 09:55:47;;;;;;;3.95;2.50;;;;;;;;;;5094647;28;20016;-61
2023/07/08 09:58:15;;;;;;;3.65;2.33;;;;;;;;;;5095204;28;20024;-60
2023/07/08 10:00:42;;;;;;;4.63;3.38;;;;;;;;;;5093847;28;20070;-60
2023/07/08 10:03:21;;;;;;;3.83;2.90;;;;;;;;;;5095169;28;20024;-60
2023/07/08 10:05:49;;;;;;;4.97;3.05;;;;;;;;;;5094556;28;20428;-61
2023/07/08 10:08:22;;;;;;;4.75;2.60;;;;;;;;;;5094747;28;20436;-62
2023/07/08 10:10:50;;;;;;;3.65;2.33;;;;;;;;;;5093325;28;20107;-60
2023/07/08 10:13:39;;;;;;;4.13;3.03;;;;;;;;;;5094953;28;20028;-61
2023/07/08 10:16:23;;;;;;;4.07;3.10;;;;;;;;;;5094516;28;20324;-62
2023/07/08 10:18:49;;;;;;;4.18;2.30;;;;;;;;;;5094732;28;20134;-60
2023/07/08 10:21:15;;;;;;;6.82;3.03;;;;;;;;;;5093555;28;20377;-60
2023/07/08 10:23:54;;;;;;;5.38;2.10;;;;;;;;;;5095031;28;20085;-61
2023/07/08 10:26:26;;;;;;;3.20;2.30;;;;;;;;;;5094446;28;20115;-60
2023/07/08 10:29:01;;;;;;;4.07;2.58;;;;;;;;;;5093544;28;20027;-60
2023/07/08 10:31:53;;;;;;;3.63;2.25;;;;;;;;;;5092406;28;20111;-60
2023/07/08 10:34:19;;;;;;;2.65;1.65;;;;;;;;;;5091962;28;20060;-60
2023/07/08 10:37:08;;;;;;;3.65;1.70;;;;;;;;;;5094176;28;20098;-60
2023/07/08 10:39:44;;;;;;;2.22;1.35;;;;;;;;;;5094530;28;20023;-60
2023/07/08 10:42:24;;;;;;;5.90;1.88;;;;;;;;;;5093293;28;20020;-61
2023/07/08 10:44:50;;;;;;;;;;;;;;;;;;5094812;28;20023;-61
2023/07/08 10:47:36;;;;;;;4.78;1.98;;;;;;;;;;5093608;28;19949;-61
2023/07/08 10:50:08;;;;;;;2.85;1.83;;;;;;;;;;5082676;28;20040;-60
2023/07/08 10:52:43;;;;;;;3.53;1.60;;;;;;;;;;5093889;28;20028;-61
2023/07/08 10:55:35;;;;;;;3.92;1.65;;;;;;;;;;5094088;28;20074;-61
2023/07/08 10:58:13;;;;;;;4.93;2.45;;;;;;;;;;5070009;28;20136;-62
2023/07/08 11:00:57;;;;;;;3.38;2.17;;;;;;;;;;5093617;28;20097;-60
2023/07/08 11:03:26;;;;;;;7.32;1.88;;;;;;;;;;5093891;28;20111;-60
2023/07/08 11:06:11;;;;;;;2.95;2.03;;;;;;;;;;5093612;28;20505;-60
2023/07/08 11:08:43;;;;;;;3.13;1.85;;;;;;;;;;5093509;28;20030;-61
2023/07/08 11:11:13;;;;;;;2.85;2.05;;;;;;;;;;5092522;28;20031;-61
2023/07/08 11:13:44;;;;;;;2.17;1.48;;;;;;;;;;5093863;28;20028;-61
2023/07/08 11:16:15;;;;;;;2.80;1.40;;;;;;;;;;5093380;28;20089;-60
2023/07/08 11:18:43;;;;;;;2.10;1.40;;;;;;;;;;5093511;28;20500;-60
2023/07/08 11:21:12;;;;;;;2.63;1.35;;;;;;;;;;5092256;28;20024;-60
2023/07/08 11:23:44;;;;;;;3.08;1.90;;;;;;;;;;5093683;28;20111;-60
2023/07/08 11:26:20;;;;;;;3.03;1.55;;;;;;;;;;5093166;28;20368;-61
2023/07/08 11:28:47;;;;;;;2.60;1.52;;;;;;;;;;5093621;28;20465;-62
2023/07/08 11:31:13;;;;;;;3.22;1.90;;;;;;;;;;5090365;28;20027;-61
2023/07/08 11:33:40;;;;;;;5.35;2.03;;;;;;;;;;5092857;28;20082;-61
2023/07/08 11:36:06;;;;;;;3.65;1.85;;;;;;;;;;5093254;28;20034;-61
2023/07/08 11:38:38;;;;;;;4.05;2.17;;;;;;;;;;5093242;28;20165;-60
2023/07/08 11:41:11;;;;;;;3.55;2.00;;;;;;;;;;5092116;28;20059;-60
2023/07/08 11:43:57;;;;;;;2.85;1.73;;;;;;;;;;5093313;28;20028;-60
2023/07/08 11:46:28;;;;;;;2.30;1.77;;;;;;;;;;5092606;28;20028;-60
2023/07/08 11:48:55;;;;;;;2.67;1.88;;;;;;;;;;5093107;28;20031;-60
2023/07/08 11:51:27;;;;;;;2.83;1.65;;;;;;;;;;5091890;28;20047;-60
2023/07/08 11:54:12;;;;;;;4.10;2.35;;;;;;;;;;5093043;28;20019;-61
2023/07/08 11:56:57;;;;;;;3.42;2.22;;;;;;;;;;5092641;28;20059;-61
2023/07/08 11:59:29;;;;;;;2.30;1.65;;;;;;;;;;5093369;28;20024;-59
2023/07/08 12:02:02;;;;;;;3.25;1.52;;;;;;;;;;5091739;28;20473;-60
2023/07/08 12:04:30;;;;;;;4.25;1.55;;;;;;;;;;5092574;28;20500;-61
2023/07/08 12:07:03;;;;;;;4.88;1.63;;;;;;;;;;5092632;28;20020;-60
2023/07/08 12:09:35;;;;;;;5.55;2.20;;;;;;;;;;5092139;28;20032;-60
2023/07/08 12:12:02;;;;;;;2.67;1.58;;;;;;;;;;5091934;28;20038;-60
2023/07/08 12:14:29;;;;;;;6.03;1.70;;;;;;;;;;5092751;28;20127;-60
2023/07/08 12:16:56;;;;;;;2.63;1.40;;;;;;;;;;5091978;28;20119;-61
2023/07/08 12:19:23;;;;;;;3.13;1.83;;;;;;;;;;5092592;28;20103;-61
2023/07/08 12:21:49;;;;;;;2.80;1.67;;;;;;;;;;5091647;28;20021;-61
2023/07/08 12:24:15;;;;;;;2.35;1.58;;;;;;;;;;5092436;28;20118;-61
2023/07/08 12:26:42;;;;;;;3.47;1.55;;;;;;;;;;5092265;28;20052;-61
2023/07/08 12:29:11;;;;;;;2.80;1.42;;;;;;;;;;5092298;28;20059;-61
2023/07/08 12:31:37;;;;;;;2.95;1.55;;;;;;;;;;5089795;28;20461;-61
2023/07/08 12:34:05;;;;;;;3.35;1.92;;;;;;;;;;5092454;28;20523;-61
2023/07/08 12:36:34;;;;;;;2.58;1.60;;;;;;;;;;5092204;28;20028;-61
2023/07/08 12:39:00;;;;;;;1.88;1.33;;;;;;;;;;5092086;28;20031;-61
2023/07/08 12:41:29;;;;;;;2.95;1.30;;;;;;;;;;5091540;28;20086;-61
2023/07/08 12:43:55;;;;;;;2.95;1.70;;;;;;;;;;5092349;28;20036;-61
2023/07/08 12:46:22;;;;;;;2.97;1.90;;;;;;;;;;5092047;28;20174;-62
2023/07/08 12:48:48;;;;;;;3.22;1.80;;;;;;;;;;5092199;28;20107;-62
2023/07/08 12:51:16;;;;;;;5.45;2.00;;;;;;;;;;5090226;28;20041;-62
2023/07/08 12:53:42;;;;;;;3.63;1.98;;;;;;;;;;5091750;28;20028;-61
2023/07/08 12:56:08;;;;;;;2.70;1.60;;;;;;;;;;5091873;28;20036;-62
2023/07/08 12:58:37;;;;;;;3.42;1.65;;;;;;;;;;5092176;28;20137;-61
2023/07/08 13:01:04;;;;;;;2.58;1.67;;;;;;;;;;5090883;28;20493;-61
2023/07/08 13:03:32;;;;;;;4.40;1.80;;;;;;;;;;5091803;28;20434;-60
2023/07/08 13:05:59;;;;;;;3.50;2.10;;;;;;;;;;5091746;28;20059;-60
2023/07/08 13:08:27;;;;;;;2.42;1.40;;;;;;;;;;5091478;28;20028;-60
2023/07/08 13:10:56;;;;;;;2.42;1.77;;;;;;;;;;5090883;28;20020;-61
2023/07/08 13:13:25;;;;;;;3.88;1.73;;;;;;;;;;5090783;28;20473;-61
2023/07/08 13:15:51;;;;;;;2.13;1.60;;;;;;;;;;5091659;28;20024;-60
2023/07/08 13:18:30;;;;;;;2.35;1.35;;;;;;;;;;5091895;28;20021;-60
2023/07/08 13:20:56;;;;;;;3.05;1.55;;;;;;;;;;5090604;28;20016;-61
2023/07/08 13:23:23;;;;;;;2.30;1.30;;;;;;;;;;5091688;28;20138;-61
2023/07/08 13:25:50;;;;;;;2.60;1.30;;;;;;;;;;5090983;28;20028;-60
2023/07/08 13:28:17;;;;;;;2.25;1.20;;;;;;;;;;5091759;28;20028;-61
2023/07/08 13:30:55;;;;;;;3.35;1.70;;;;;;;;;;5090567;28;20040;-61
2023/07/08 13:33:22;;;;;;;1.63;0.80;;;;;;;;;;5091508;28;20470;-60
2023/07/08 13:35:48;;;;;;;2.88;1.08;;;;;;;;;;5091311;28;20024;-61
2023/07/08 13:38:22;;;;;;;4.60;1.10;;;;;;;;;;5091669;28;20036;-60
2023/07/08 13:40:50;;;;;;;2.20;1.10;;;;;;;;;;5090884;28;20419;-61
2023/07/08 13:43:16;;;;;;;3.55;1.42;;;;;;;;;;5091227;28;20362;-62
2023/07/08 13:45:49;;;;;;;5.20;1.48;;;;;;;;;;5091510;28;20383;-61
2023/07/08 13:48:20;;;;;;;3.42;1.70;;;;;;;;;;5091398;28;20127;-61
2023/07/08 13:50:52;;;;;;;2.85;1.38;;;;;;;;;;5090527;28;20028;-61
2023/07/08 13:53:21;;;;;;;2.13;1.08;;;;;;;;;;5091346;28;20056;-61
2023/07/08 13:55:48;;;;;;;3.03;1.02;;;;;;;;;;5090906;28;20027;-62
2023/07/08 13:58:18;;;;;;;3.45;1.45;;;;;;;;;;5091414;28;20032;-61
2023/07/08 14:00:43;;;;;;;;;;;;;;;;;;5090711;28;20024;-61
2023/07/08 14:03:11;;;;;;;2.25;1.45;;;;;;;;;;5093140;28;19915;-62
2023/07/08 14:05:40;;;;;;;3.25;1.70;;;;;;;;;;5094792;28;20464;-62
2023/07/08 14:08:13;;;;;;;2.13;1.40;;;;;;;;;;5094731;28;20028;-61
2023/07/08 14:10:39;;;;;;;4.10;1.88;;;;;;;;;;5093153;28;20453;-60
2023/07/08 14:13:05;;;;;;;3.30;1.88;;;;;;;;;;5094966;28;20038;-61
2023/07/08 14:15:32;;;;;;;2.47;1.27;;;;;;;;;;5094699;28;20422;-61
2023/07/08 14:17:58;;;;;;;2.15;1.10;;;;;;;;;;5095285;28;20028;-61
2023/07/08 14:20:25;;;;;;;3.20;1.67;;;;;;;;;;5093877;28;20480;-61
2023/07/08 14:22:51;;;;;;;3.30;1.50;;;;;;;;;;5094746;28;20036;-60
2023/07/08 14:25:20;;;;;;;4.88;2.03;;;;;;;;;;5094264;28;20476;-61
2023/07/08 14:27:46;;;;;;;3.92;2.22;;;;;;;;;;5095074;28;20036;-62
2023/07/08 14:30:12;;;;;;;2.88;1.63;;;;;;;;;;5094140;28;20028;-62
2023/07/08 14:32:39;;;;;;;4.68;1.52;;;;;;;;;;5091300;28;20470;-61
2023/07/08 14:35:14;;;;;;;2.75;1.67;;;;;;;;;;5094241;28;20024;-61
2023/07/08 14:37:40;;;;;;;3.75;1.48;;;;;;;;;;5094538;28;20473;-60
2023/07/08 14:40:18;;;;;;;2.00;1.13;;;;;;;;;;5094211;28;20028;-60
2023/07/08 14:42:44;;;;;;;2.42;1.15;;;;;;;;;;5094316;28;20028;-59
2023/07/08 14:45:11;;;;;;;2.90;1.52;;;;;;;;;;5094011;28;20470;-61
2023/07/08 14:47:36;;;;;;;2.40;1.42;;;;;;;;;;5094156;28;20115;-60
2023/07/08 14:50:15;;;;;;;3.13;1.50;;;;;;;;;;5094299;28;20486;-60